GCFV Información de aeropuertos

Información de pistas
Pista 01 Longitud 7874 ft Ancho 148 ft
Elevación 37 ft Umbral 0 ft Rumbo 2
Pista 19 Longitud 7874 ft Ancho 148 ft
Elevación 75 ft Umbral 0 ft Rumbo 182
Frecuencias
Tipo APP Nombre CANARIAS A Frequencia 129.3 MHZ
Tipo ATIS Nombre ATIS Frequencia 118.65 MHZ
Tipo GND Nombre GND Frequencia 121.7 MHZ
Tipo TWR Nombre TWR Frequencia 118.5 MHZ
Radioayudas
Tipo VOR-DME Nombre Fuerteventura Frequencia 114100 KHZ
Información meteorológica y NOTAM
ADDS - METARS form results

(2138 UTC 12 August 2020)
Data provider http://aviationweather.gov/metar/data/
 
METAR text: GCFV 122130Z 03018KT 9999 FEW025 23/19 Q1016
Conditions at: GCFV (FUERTEVENTURA AR, ES) observed 2130 UTC 12 August 2020
Temperature: 23.0°C (73°F)
Dewpoint: 19.0°C (66°F) [RH = 78%]
Pressure (altimeter): 30.00 inches Hg (1016.0 mb)
Winds: from the NNE (30 degrees) at 21 MPH (18 knots; 9.3 m/s)
Visibility: 6 or more miles (10+ km)
Ceiling: at least 12,000 feet AGL
Clouds: few clouds at 2500 feet AGL
Weather: no significant weather observed at this time

METAR text: GCFV 122100Z 03018KT 9999 FEW025 23/20 Q1016
Conditions at: GCFV (FUERTEVENTURA AR, ES) observed 2100 UTC 12 August 2020
Temperature: 23.0°C (73°F)
Dewpoint: 20.0°C (68°F) [RH = 83%]
Pressure (altimeter): 30.00 inches Hg (1016.0 mb)
Winds: from the NNE (30 degrees) at 21 MPH (18 knots; 9.3 m/s)
Visibility: 6 or more miles (10+ km)
Ceiling: at least 12,000 feet AGL
Clouds: few clouds at 2500 feet AGL
Weather: no significant weather observed at this time

Forecast for: GCFV (FUERTEVENTURA AR, ES)
Text: TAF GCFV 122000Z 1221/1321 36012KT 9999 FEW025 TX27/1314Z TN22/1306Z
Forecast period: 2100 UTC 12 August 2020 to 0700 UTC 13 August 2020
Forecast type: FROM: standard forecast or significant change
Winds: from the N (360 degrees) at 14 MPH (12 knots; 6.2 m/s)
Visibility: 6 or more miles (10+ km)
Ceiling: at least 12,000 feet AGL
Clouds: few clouds at 2500 feet AGL
Weather: no significant weather forecast for this period
Text: BECMG 1307/1310 06018KT
Forecast period: 0700 to 2100 UTC 13 August 2020
Forecast type: BECOMING: Conditions expected to become as follows by 1000 UTC 13 August 2020
Winds: from the ENE (60 degrees) at 21 MPH (18 knots; 9.3 m/s)
Visibility: 6 or more miles (10+ km)
Ceiling: at least 12,000 feet AGL
Clouds: few clouds at 2500 feet AGL
Weather: no significant weather forecast for this period